createdAt,value
2023-03-26T00:02:58.272Z,99313.03
2023-03-26T00:08:00.458Z,99313.53
2023-03-26T00:13:01.134Z,99319.06
2023-03-26T00:18:02.312Z,99322.25
2023-03-26T00:23:04.417Z,99333.41
2023-03-26T00:28:06.270Z,99326.16
2023-03-26T00:33:07.734Z,99340.72
2023-03-26T00:38:10.721Z,99352.94
2023-03-26T00:43:18.928Z,99350.34
2023-03-26T00:48:19.739Z,99349.50
2023-03-26T00:53:22.129Z,99335.84
2023-03-26T00:58:22.781Z,99318.84
2023-03-26T01:03:27.860Z,99327.38
2023-03-26T01:08:32.785Z,99322.13
2023-03-26T01:13:36.807Z,99312.69
2023-03-26T01:18:41.217Z,99299.91
2023-03-26T01:23:48.992Z,99299.91
2023-03-26T01:28:55.669Z,99304.94
2023-03-26T01:34:05.370Z,99308.63
2023-03-26T01:39:18.750Z,99316.34
2023-03-26T01:44:26.482Z,99330.22
2023-03-26T01:49:28.423Z,99309.66
2023-03-26T01:54:32.385Z,99314.97
2023-03-26T01:59:47.522Z,99323.81
2023-03-26T02:04:53.611Z,99307.72
2023-03-26T02:09:59.534Z,99300.16
2023-03-26T02:15:02.578Z,99311.53
2023-03-26T02:20:10.727Z,99316.88
2023-03-26T02:25:13.933Z,99340.28
2023-03-26T02:30:18.116Z,99324.53
2023-03-26T02:35:22.722Z,99327.28
2023-03-26T02:40:31.160Z,99324.69
2023-03-26T02:45:34.046Z,99356.97
2023-03-26T02:51:09.945Z,99331.22
2023-03-26T02:56:16.112Z,99343.22
2023-03-26T03:01:35.083Z,99336.31
2023-03-26T03:06:38.349Z,99322.56
2023-03-26T03:11:42.069Z,99320.66
2023-03-26T03:16:45.007Z,99332.72
2023-03-26T03:21:46.598Z,99337.97
2023-03-26T03:26:47.661Z,99336.78
2023-03-26T03:32:19.188Z,99332.66
2023-03-26T03:37:23.394Z,99323.28
2023-03-26T03:42:28.390Z,99324.28
2023-03-26T03:47:33.979Z,99322.47
2023-03-26T03:52:34.688Z,99325.66
2023-03-26T03:57:35.432Z,99326.53
2023-03-26T04:02:42.974Z,99316.97
2023-03-26T04:07:45.206Z,99317.81
2023-03-26T04:13:01.488Z,99315.13
2023-03-26T04:18:41.972Z,99316.06
2023-03-26T04:23:48.401Z,99312.41
2023-03-26T04:29:02.753Z,99308.94
2023-03-26T04:34:13.578Z,99300.22
2023-03-26T04:39:29.100Z,99291.34
2023-03-26T04:44:50.772Z,99293.16
2023-03-26T04:49:53.461Z,99304.03
2023-03-26T04:54:54.285Z,99298.25
2023-03-26T04:59:57.150Z,99291.84
2023-03-26T05:04:59.222Z,99298.75
2023-03-26T05:10:04.345Z,99298.06
2023-03-26T05:15:10.458Z,99295.97
2023-03-26T05:20:35.971Z,99300.25
2023-03-26T05:25:39.230Z,99301.06
2023-03-26T05:30:47.650Z,99298.38
2023-03-26T05:36:01.072Z,99304.53
2023-03-26T05:41:03.833Z,99313.19
2023-03-26T05:46:05.822Z,99311.28
2023-03-26T05:51:08.976Z,99320.97
2023-03-26T05:56:14.593Z,99316.28
2023-03-26T06:01:33.844Z,99321.59
2023-03-26T06:07:02.185Z,99315.41
2023-03-26T06:12:03.165Z,99327.41
2023-03-26T06:17:05.745Z,99320.25
2023-03-26T06:22:27.725Z,99307.00
2023-03-26T06:27:46.669Z,99306.25
2023-03-26T06:33:07.679Z,99308.06
2023-03-26T06:38:17.476Z,99301.75
2023-03-26T06:43:18.618Z,99299.00
2023-03-26T06:48:47.907Z,99315.38
2023-03-26T06:53:52.503Z,99304.28
2023-03-26T06:59:25.583Z,99292.50
2023-03-26T07:04:44.777Z,99292.72
2023-03-26T07:10:05.865Z,99300.53
2023-03-26T07:15:30.847Z,99297.69
2023-03-26T07:20:58.010Z,99291.94
2023-03-26T07:26:19.011Z,99298.47
2023-03-26T07:31:54.028Z,99292.44
2023-03-26T07:37:23.459Z,99283.91
2023-03-26T07:42:56.255Z,99282.94
2023-03-26T07:48:20.039Z,99286.63
2023-03-26T07:53:41.610Z,99275.84
2023-03-26T07:59:21.711Z,99276.47
2023-03-26T08:05:21.709Z,99283.81
2023-03-26T08:11:27.876Z,99283.16
2023-03-26T08:16:38.284Z,99273.72
2023-03-26T08:21:45.801Z,99275.94
2023-03-26T08:26:58.463Z,99274.53
2023-03-26T08:32:02.479Z,99273.94
2023-03-26T08:37:04.507Z,99270.66
2023-03-26T08:42:58.303Z,99275.38
2023-03-26T08:48:49.059Z,99265.19
2023-03-26T08:54:10.976Z,99260.59
2023-03-26T08:59:49.383Z,99260.16
2023-03-26T09:05:23.369Z,99260.47
2023-03-26T09:10:59.855Z,99240.63
2023-03-26T09:16:18.763Z,99239.28
2023-03-26T09:22:01.466Z,99239.47
2023-03-26T09:27:11.116Z,99230.63
2023-03-26T09:32:48.227Z,99230.38
2023-03-26T09:37:58.976Z,99221.06
2023-03-26T09:43:24.114Z,99215.72
2023-03-26T09:48:48.476Z,99207.22
2023-03-26T09:54:32.293Z,99198.09
2023-03-26T09:59:58.539Z,99192.28
2023-03-26T10:05:20.099Z,99192.53
2023-03-26T10:10:32.765Z,99185.81
2023-03-26T10:15:42.102Z,99183.25
2023-03-26T10:20:57.856Z,99166.03
2023-03-26T10:26:11.186Z,99162.47
2023-03-26T10:31:34.282Z,99156.69
2023-03-26T10:36:49.559Z,99144.22
2023-03-26T10:41:59.774Z,99138.31
2023-03-26T10:47:23.652Z,99117.19
2023-03-26T10:52:30.537Z,99096.34
2023-03-26T10:57:41.178Z,99087.94
2023-03-26T11:02:48.053Z,99086.75
2023-03-26T11:07:58.331Z,99071.88
2023-03-26T11:13:09.066Z,99070.25
2023-03-26T11:18:17.880Z,99057.75
2023-03-26T11:23:32.092Z,99054.88
2023-03-26T11:29:03.818Z,99061.47
2023-03-26T11:34:15.718Z,99057.22
2023-03-26T11:39:25.793Z,99037.44
2023-03-26T11:44:30.529Z,99043.56
2023-03-26T11:49:31.882Z,99025.75
2023-03-26T11:54:33.997Z,99020.97
2023-03-26T11:59:53.056Z,99023.75
2023-03-26T12:05:19.359Z,99030.38
2023-03-26T12:10:28.164Z,99022.59
2023-03-26T12:15:32.022Z,99025.66
2023-03-26T12:20:36.730Z,99017.22
2023-03-26T12:25:41.038Z,99016.19
2023-03-26T12:30:45.073Z,99008.28
2023-03-26T12:35:46.213Z,99006.09
2023-03-26T12:40:49.056Z,99000.53
2023-03-26T12:47:54.551Z,99009.22
2023-03-26T12:51:24.773Z,99008.06
2023-03-26T12:56:36.886Z,99003.94
2023-03-26T13:01:50.408Z,99003.97
2023-03-26T13:07:00.587Z,98986.47
2023-03-26T13:12:15.270Z,98992.31
2023-03-26T13:17:24.519Z,98983.41
2023-03-26T13:22:36.143Z,98971.09
2023-03-26T13:27:54.663Z,98964.56
2023-03-26T13:33:10.406Z,98969.94
2023-03-26T13:38:16.380Z,98956.06
2023-03-26T13:43:33.717Z,98962.00
2023-03-26T13:48:43.096Z,98949.78
2023-03-26T13:53:59.970Z,98945.59
2023-03-26T13:59:24.512Z,98945.94
2023-03-26T14:04:32.609Z,98952.94
2023-03-26T14:09:44.082Z,98959.66
2023-03-26T14:14:51.705Z,98959.84
2023-03-26T14:20:28.000Z,98964.00
2023-03-26T14:25:42.650Z,98957.06
2023-03-26T14:31:09.469Z,98973.50
2023-03-26T14:36:19.668Z,98985.38
2023-03-26T14:41:25.925Z,98993.16
2023-03-26T14:46:39.629Z,98987.53
2023-03-26T14:51:58.729Z,98984.22
2023-03-26T14:57:24.014Z,98980.69
2023-03-26T15:03:13.292Z,98985.25
2023-03-26T15:08:49.125Z,98981.28
2023-03-26T15:14:01.459Z,98975.53
2023-03-26T15:19:43.541Z,98969.81
2023-03-26T15:25:22.068Z,98959.03
2023-03-26T15:30:54.769Z,98971.00
2023-03-26T15:36:41.139Z,98962.47
2023-03-26T15:41:48.143Z,98965.13
2023-03-26T15:47:32.458Z,98964.03
2023-03-26T15:52:40.599Z,98970.44
2023-03-26T15:57:46.966Z,98968.97
2023-03-26T16:02:58.354Z,98969.00
2023-03-26T16:08:14.784Z,98973.66
2023-03-26T16:13:28.230Z,98986.75
2023-03-26T16:18:32.729Z,98981.09
2023-03-26T16:23:55.228Z,98991.81
2023-03-26T16:29:16.350Z,98986.09
2023-03-26T16:34:29.524Z,98991.75
2023-03-26T16:39:50.974Z,98989.63
2023-03-26T16:45:01.127Z,98990.53
2023-03-26T16:50:14.966Z,98995.56
2023-03-26T16:55:36.014Z,98997.72
2023-03-26T17:00:44.950Z,98999.25
2023-03-26T17:06:03.396Z,98999.34
2023-03-26T17:11:18.240Z,99001.81
2023-03-26T17:16:24.367Z,99004.59
2023-03-26T17:21:45.724Z,99005.00
2023-03-26T17:27:00.989Z,99012.06
2023-03-26T17:32:08.704Z,99016.22
2023-03-26T17:37:12.729Z,99014.16
2023-03-26T17:42:26.754Z,99009.59
2023-03-26T17:47:39.127Z,99018.88
2023-03-26T17:52:50.482Z,99020.78
2023-03-26T17:57:55.725Z,99021.84
2023-03-26T18:03:00.100Z,99028.56
2023-03-26T18:08:33.073Z,99030.16
2023-03-26T18:13:54.920Z,99034.38
2023-03-26T18:19:00.708Z,99039.66
2023-03-26T18:24:03.224Z,99039.13
2023-03-26T18:29:17.698Z,99042.22
2023-03-26T18:34:19.527Z,99039.47
2023-03-26T18:39:20.283Z,99031.59
2023-03-26T18:44:22.762Z,99034.25
2023-03-26T18:49:26.869Z,99033.34
2023-03-26T18:54:34.545Z,99032.34
2023-03-26T18:59:41.381Z,99024.06
2023-03-26T19:04:46.180Z,99020.59
2023-03-26T19:09:48.653Z,99020.50
2023-03-26T19:14:56.109Z,99011.19
2023-03-26T19:19:57.698Z,99012.16
2023-03-26T19:25:02.076Z,99006.19
2023-03-26T19:30:05.126Z,99009.50
2023-03-26T19:35:23.947Z,98996.50
2023-03-26T19:40:29.997Z,98993.91
2023-03-26T19:45:35.698Z,98981.84
2023-03-26T19:50:42.222Z,98975.75
2023-03-26T19:55:43.136Z,98974.16
2023-03-26T20:00:45.197Z,98973.13
2023-03-26T20:05:46.038Z,98963.66
2023-03-26T20:10:46.863Z,98959.53
2023-03-26T20:16:05.852Z,98951.94
2023-03-26T20:21:11.346Z,98942.56
2023-03-26T20:26:14.029Z,98939.41
2023-03-26T20:31:19.300Z,98940.41
2023-03-26T20:36:33.608Z,98933.94
2023-03-26T20:41:38.057Z,98943.28
2023-03-26T20:46:40.272Z,98932.66
2023-03-26T20:51:41.990Z,98930.94
2023-03-26T20:56:42.918Z,98925.34
2023-03-26T21:01:45.020Z,98931.34
2023-03-26T21:06:46.029Z,98924.28
2023-03-26T21:11:53.781Z,98923.38
2023-03-26T21:16:56.595Z,98927.09
2023-03-26T21:22:10.617Z,98920.47
2023-03-26T21:27:17.788Z,98926.25
2023-03-26T21:32:20.688Z,98921.22
2023-03-26T21:37:22.011Z,98929.75
2023-03-26T21:42:26.830Z,98944.31
2023-03-26T21:47:29.616Z,98959.84
2023-03-26T21:52:31.853Z,98965.03
2023-03-26T21:57:44.566Z,98966.69
2023-03-26T22:02:59.998Z,98980.41
2023-03-26T22:08:02.931Z,98989.00
2023-03-26T22:13:03.664Z,98981.16
2023-03-26T22:18:08.065Z,98979.34
2023-03-26T22:23:09.296Z,98974.31
2023-03-26T22:28:10.274Z,98974.34
2023-03-26T22:33:12.575Z,98986.63
2023-03-26T22:38:13.453Z,98978.06
2023-03-26T22:43:14.116Z,98983.47
2023-03-26T22:48:17.372Z,98980.03
2023-03-26T22:53:18.119Z,98978.53
2023-03-26T22:58:18.765Z,98985.28
2023-03-26T23:03:35.173Z,98987.13
2023-03-26T23:08:38.056Z,98984.72
2023-03-26T23:13:39.141Z,98985.53
2023-03-26T23:18:42.105Z,98990.69
2023-03-26T23:23:42.903Z,98985.63
2023-03-26T23:28:44.179Z,98993.72
2023-03-26T23:33:47.474Z,99008.41
2023-03-26T23:38:49.447Z,99001.53
2023-03-26T23:43:55.604Z,99011.97
2023-03-26T23:49:02.204Z,99016.88
2023-03-26T23:54:05.105Z,99020.53
2023-03-26T23:59:06.155Z,99016.00
